Time;durP1;ratioP1;P1;durP2;ratioP2;P2;SDS_P1;SDS_P2;PMS_P1;PMS_P2;Temp;Humidity;BMP_temperature;BMP_pressure;BME280_temperature;BME280_humidity;BME280_pressure;Samples;Min_cycle;Max_cycle;Signal;HPM_P1;HPM_P2
2023/01/08 00:01:23;;;;;;;4.90;2.70;;;10.40;81.40;;;;;;5131622;27;20050;-79
2023/01/08 00:03:49;;;;;;;6.38;3.15;;;10.30;81.30;;;;;;5131388;27;20123;-78
2023/01/08 00:06:18;;;;;;;4.45;2.42;;;10.40;81.40;;;;;;5103096;27;20172;-79
2023/01/08 00:08:44;;;;;;;4.20;2.45;;;10.40;81.40;;;;;;5131784;27;20119;-78
2023/01/08 00:11:11;;;;;;;3.83;2.47;;;10.30;81.30;;;;;;5131848;27;20368;-79
2023/01/08 00:13:37;;;;;;;4.50;2.67;;;10.40;81.40;;;;;;5116252;27;20038;-78
2023/01/08 00:16:08;;;;;;;3.70;2.42;;;10.40;81.50;;;;;;5113558;27;20079;-78
2023/01/08 00:18:34;;;;;;;5.25;2.50;;;10.40;81.90;;;;;;5130298;27;20065;-78
2023/01/08 00:21:00;;;;;;;4.05;2.90;;;10.40;81.60;;;;;;5130486;27;20035;-78
2023/01/08 00:23:26;;;;;;;3.80;2.70;;;10.40;81.70;;;;;;5130701;27;20494;-75
2023/01/08 00:25:52;;;;;;;3.88;3.08;;;10.40;81.80;;;;;;5130585;27;20043;-75
2023/01/08 00:28:19;;;;;;;4.68;2.72;;;10.40;81.90;;;;;;5113368;27;20096;-75
2023/01/08 00:30:45;;;;;;;6.25;2.85;;;10.40;82.10;;;;;;5113115;27;20125;-76
2023/01/08 00:33:11;;;;;;;5.20;3.10;;;10.40;82.30;;;;;;5113056;27;20035;-75
2023/01/08 00:35:38;;;;;;;5.70;2.75;;;10.40;82.30;;;;;;5113554;27;20031;-75
2023/01/08 00:38:04;;;;;;;5.07;3.20;;;10.40;82.50;;;;;;5131075;27;20058;-75
2023/01/08 00:40:31;;;;;;;6.05;2.75;;;10.40;82.70;;;;;;5131022;27;20512;-75
2023/01/08 00:42:57;;;;;;;6.22;2.90;;;10.40;83.30;;;;;;5127548;27;20039;-74
2023/01/08 00:45:22;;;;;;;4.13;2.35;;;10.40;83.00;;;;;;5130670;27;20034;-75
2023/01/08 00:47:48;;;;;;;4.25;3.03;;;10.40;83.00;;;;;;5113951;28;20035;-74
2023/01/08 00:50:15;;;;;;;3.88;2.70;;;10.40;83.10;;;;;;5130731;28;20410;-74
2023/01/08 00:52:41;;;;;;;5.65;3.28;;;10.40;83.10;;;;;;5114006;28;20455;-74
2023/01/08 00:55:07;;;;;;;4.40;2.95;;;10.30;83.00;;;;;;5103974;28;20034;-74
2023/01/08 00:57:34;;;;;;;4.38;3.10;;;10.40;83.10;;;;;;5113990;28;20041;-74
2023/01/08 01:00:00;;;;;;;5.20;2.67;;;10.30;83.00;;;;;;5130514;28;20046;-74
2023/01/08 01:02:26;;;;;;;5.25;2.90;;;10.30;83.00;;;;;;5130521;28;20044;-74
2023/01/08 01:04:52;;;;;;;5.93;2.90;;;10.30;82.90;;;;;;5130327;28;20394;-74
2023/01/08 01:07:18;;;;;;;4.22;2.60;;;10.30;83.00;;;;;;5130621;27;20054;-74
2023/01/08 01:09:44;;;;;;;5.90;2.20;;;10.20;83.30;;;;;;5116982;27;20638;-74
2023/01/08 01:12:10;;;;;;;4.72;2.13;;;10.20;82.80;;;;;;5117728;27;20043;-74
2023/01/08 01:14:37;;;;;;;5.00;2.00;;;10.20;82.50;;;;;;5134304;27;20046;-74
2023/01/08 01:17:03;;;;;;;4.43;1.42;;;10.20;82.40;;;;;;5126029;27;20035;-74
2023/01/08 01:19:29;;;;;;;6.38;1.73;;;10.20;82.20;;;;;;5134789;27;20043;-74
2023/01/08 01:21:55;;;;;;;4.43;1.58;;;10.20;82.00;;;;;;5133672;27;20050;-75
2023/01/08 01:24:23;;;;;;;3.60;1.58;;;10.20;81.80;;;;;;5133314;27;20108;-74
2023/01/08 01:26:50;;;;;;;6.53;1.92;;;10.10;81.60;;;;;;5116947;27;20035;-74
2023/01/08 01:29:16;;;;;;;5.43;1.50;;;10.10;81.40;;;;;;5134312;27;20035;-74
2023/01/08 01:31:42;;;;;;;3.67;1.30;;;10.10;81.30;;;;;;5117210;27;20030;-74
2023/01/08 01:34:08;;;;;;;5.28;1.80;;;10.10;81.20;;;;;;5134270;27;20064;-74
2023/01/08 01:36:35;;;;;;;3.67;1.40;;;10.00;81.00;;;;;;5134042;27;20039;-74
2023/01/08 01:39:01;;;;;;;4.25;1.58;;;10.00;80.90;;;;;;5116892;27;20118;-75
2023/01/08 01:41:35;;;;;;;7.63;1.48;;;10.00;80.80;;;;;;5134004;27;20110;-78
2023/01/08 01:44:40;;;;;;;7.10;1.40;;;10.00;80.70;;;;;;5116687;27;21715;-78
2023/01/08 01:47:30;;;;;;;9.10;1.63;;;10.00;80.50;;;;;;5143369;27;20031;-77
2023/01/08 01:49:56;;;;;;;6.03;1.50;;;9.90;80.50;;;;;;5141720;27;20040;-78
2023/01/08 01:52:23;;;;;;;4.93;1.50;;;9.90;80.60;;;;;;5134292;27;20035;-78
2023/01/08 01:54:50;;;;;;;6.43;1.58;;;9.90;80.50;;;;;;5116768;27;20115;-78
2023/01/08 01:57:16;;;;;;;4.53;1.58;;;9.90;80.60;;;;;;5117204;27;20031;-78
2023/01/08 01:59:43;;;;;;;7.97;1.88;;;9.90;80.60;;;;;;5116632;27;20367;-78
2023/01/08 02:02:09;;;;;;;6.25;1.65;;;9.80;80.50;;;;;;5116210;27;20102;-78
2023/01/08 02:04:34;;;;;;;7.07;2.08;;;9.80;80.40;;;;;;5116708;27;20035;-78
2023/01/08 02:07:07;;;;;;;6.82;1.67;;;9.80;80.40;;;;;;5133624;27;20431;-78
2023/01/08 02:10:14;;;;;;;5.68;1.83;;;9.80;80.40;;;;;;5116595;27;20027;-78
2023/01/08 02:12:56;;;;;;;5.88;1.70;;;9.80;80.30;;;;;;5134068;27;20146;-78
2023/01/08 02:15:30;;;;;;;7.03;2.28;;;9.80;80.40;;;;;;5132873;27;20043;-78
2023/01/08 02:18:02;;;;;;;9.27;1.85;;;9.70;80.40;;;;;;5131912;27;20054;-78
2023/01/08 02:20:35;;;;;;;6.47;1.40;;;9.70;80.40;;;;;;5133323;27;20051;-78
2023/01/08 02:23:07;;;;;;;8.85;1.92;;;9.70;80.30;;;;;;5132428;27;20083;-78
2023/01/08 02:25:36;;;;;;;8.48;1.70;;;9.70;80.30;;;;;;5133282;27;20055;-78
2023/01/08 02:28:07;;;;;;;10.02;1.73;;;9.70;80.40;;;;;;5131503;27;20478;-78
2023/01/08 02:30:34;;;;;;;8.98;1.75;;;9.70;80.40;;;;;;5138110;27;20043;-78
2023/01/08 02:33:00;;;;;;;8.55;1.90;;;9.60;80.40;;;;;;5133058;27;20031;-74
2023/01/08 02:35:43;;;;;;;8.68;1.52;;;9.60;80.40;;;;;;5115697;27;20600;-74
2023/01/08 02:38:14;;;;;;;6.60;1.52;;;9.60;80.40;;;;;;5131083;27;20043;-75
2023/01/08 02:40:53;;;;;;;8.77;1.90;;;9.60;80.50;;;;;;5133005;27;20035;-74
2023/01/08 02:43:34;;;;;;;8.63;1.55;;;9.60;80.60;;;;;;5131494;27;20039;-74
2023/01/08 02:46:01;;;;;;;10.15;1.73;;;9.50;80.60;;;;;;5137467;27;20074;-75
2023/01/08 02:48:36;;;;;;;6.15;1.65;;;9.50;80.70;;;;;;5132615;27;20084;-74
2023/01/08 02:51:10;;;;;;;8.57;1.35;;;9.50;80.80;;;;;;5130624;27;20035;-74
2023/01/08 02:53:41;;;;;;;8.52;1.67;;;9.50;80.80;;;;;;5132766;27;20039;-74
2023/01/08 02:56:11;;;;;;;5.32;1.48;;;9.50;80.90;;;;;;5115482;27;20039;-74
2023/01/08 02:58:39;;;;;;;7.22;1.67;;;9.50;81.20;;;;;;5116089;27;20128;-74
2023/01/08 03:01:08;;;;;;;5.45;1.60;;;9.40;81.00;;;;;;5117865;27;20042;-74
2023/01/08 03:03:35;;;;;;;6.25;1.38;;;9.40;81.00;;;;;;5132730;27;20045;-74
2023/01/08 03:06:07;;;;;;;5.55;1.70;;;9.40;81.10;;;;;;5115308;27;20031;-74
2023/01/08 03:08:39;;;;;;;6.45;1.60;;;9.40;81.20;;;;;;5113461;27;20043;-74
2023/01/08 03:11:14;;;;;;;7.38;2.20;;;9.40;81.30;;;;;;5115330;27;20046;-74
2023/01/08 03:13:58;;;;;;;5.72;1.83;;;9.40;81.40;;;;;;5130729;27;20045;-74
2023/01/08 03:16:35;;;;;;;8.27;1.52;;;9.40;81.40;;;;;;5130974;27;20039;-74
2023/01/08 03:19:08;;;;;;;7.40;1.83;;;9.30;81.40;;;;;;5130520;27;20401;-74
2023/01/08 03:21:35;;;;;;;5.60;2.47;;;9.30;81.50;;;;;;5131930;27;20065;-74
2023/01/08 03:24:02;;;;;;;5.57;1.90;;;9.30;81.70;;;;;;5130344;27;20039;-74
2023/01/08 03:26:31;;;;;;;5.10;1.90;;;9.30;81.80;;;;;;5115316;27;20065;-74
2023/01/08 03:28:56;;;;;;;5.18;1.92;;;9.30;82.00;;;;;;5132291;27;20489;-74
2023/01/08 03:31:26;;;;;;;6.32;2.10;;;9.30;82.10;;;;;;5131605;27;20092;-74
2023/01/08 03:33:53;;;;;;;3.47;1.67;;;9.30;82.30;;;;;;5130155;27;20128;-74
2023/01/08 03:36:23;;;;;;;4.78;2.03;;;9.30;82.50;;;;;;5132016;27;20041;-74
2023/01/08 03:38:59;;;;;;;5.38;2.10;;;9.30;82.60;;;;;;5137796;27;20047;-74
2023/01/08 03:41:28;;;;;;;7.03;2.45;;;9.30;82.70;;;;;;5132136;27;20088;-74
2023/01/08 03:43:55;;;;;;;4.53;2.30;;;9.30;82.80;;;;;;5131464;27;20463;-74
2023/01/08 03:46:32;;;;;;;5.28;2.30;;;9.30;82.90;;;;;;5131788;27;20036;-74
2023/01/08 03:48:59;;;;;;;5.90;2.72;;;9.30;83.10;;;;;;5131281;27;20035;-74
2023/01/08 03:51:25;;;;;;;7.40;2.83;;;9.30;83.20;;;;;;5132077;27;20516;-74
2023/01/08 03:53:55;;;;;;;7.15;2.58;;;9.30;83.30;;;;;;5131436;27;20039;-78
2023/01/08 03:56:21;;;;;;;6.90;2.75;;;9.30;83.40;;;;;;5131572;27;20042;-78
2023/01/08 03:58:47;;;;;;;6.18;2.63;;;9.30;83.50;;;;;;5131756;27;20043;-78
2023/01/08 04:01:13;;;;;;;6.18;2.92;;;9.40;83.60;;;;;;5114760;27;20042;-78
2023/01/08 04:03:38;;;;;;;7.75;2.55;;;9.40;83.60;;;;;;5114172;27;20038;-78
2023/01/08 04:06:04;;;;;;;4.90;2.50;;;9.40;83.70;;;;;;5132007;27;20031;-78
2023/01/08 04:08:30;;;;;;;5.38;2.75;;;9.40;83.70;;;;;;5093927;27;20028;-78
2023/01/08 04:10:55;;;;;;;6.25;2.38;;;9.40;83.70;;;;;;5131481;27;20083;-78
2023/01/08 04:13:21;;;;;;;6.40;2.58;;;9.40;83.70;;;;;;5113964;27;20521;-78
2023/01/08 04:15:48;;;;;;;4.60;2.35;;;9.40;83.70;;;;;;5114228;27;20050;-78
2023/01/08 04:18:14;;;;;;;7.97;2.83;;;9.40;83.70;;;;;;5131697;27;20039;-78
2023/01/08 04:20:43;;;;;;;4.18;2.33;;;9.40;83.70;;;;;;5131672;27;20066;-78
2023/01/08 04:23:09;;;;;;;5.45;2.50;;;9.50;83.70;;;;;;5128917;27;20043;-78
2023/01/08 04:25:37;;;;;;;5.80;2.05;;;9.50;83.60;;;;;;5113977;27;20074;-78
2023/01/08 04:28:03;;;;;;;6.35;2.22;;;9.50;83.60;;;;;;5131216;27;20039;-78
2023/01/08 04:30:29;;;;;;;4.55;2.30;;;9.50;83.50;;;;;;5130965;27;20386;-77
2023/01/08 04:32:54;;;;;;;7.72;2.67;;;9.50;83.50;;;;;;5131042;27;20043;-78
2023/01/08 04:35:20;;;;;;;7.40;2.45;;;9.50;83.40;;;;;;5131386;27;20084;-78
2023/01/08 04:37:46;;;;;;;4.53;1.92;;;9.50;83.40;;;;;;5131444;27;20039;-78
2023/01/08 04:40:11;;;;;;;3.60;2.03;;;9.50;83.40;;;;;;5131211;27;20431;-78
2023/01/08 04:42:37;;;;;;;5.53;2.00;;;9.50;83.30;;;;;;5112879;28;20035;-78
2023/01/08 04:45:04;;;;;;;4.85;1.80;;;9.50;83.40;;;;;;5130971;27;20035;-78
2023/01/08 04:47:29;;;;;;;7.68;2.20;;;9.50;83.20;;;;;;5114091;28;20111;-77
2023/01/08 04:49:55;;;;;;;4.47;1.88;;;9.50;83.20;;;;;;5131583;27;20620;-78
2023/01/08 04:52:21;;;;;;;7.97;2.67;;;9.50;83.10;;;;;;5113919;28;20474;-79
2023/01/08 04:54:46;;;;;;;5.28;2.03;;;9.50;83.10;;;;;;5113775;27;20393;-78
2023/01/08 04:57:12;;;;;;;3.45;1.50;;;9.40;83.00;;;;;;5130619;27;20031;-77
2023/01/08 04:59:38;;;;;;;4.82;2.25;;;9.40;83.00;;;;;;5113630;28;20042;-78
2023/01/08 05:02:04;;;;;;;4.93;2.00;;;9.40;83.00;;;;;;5113853;28;20050;-78
2023/01/08 05:04:29;;;;;;;2.83;1.55;;;9.40;83.00;;;;;;5113810;28;20533;-77
2023/01/08 05:06:55;;;;;;;3.65;1.60;;;9.40;83.00;;;;;;5130948;28;20035;-74
2023/01/08 05:09:21;;;;;;;3.80;2.30;;;9.40;83.00;;;;;;5116374;28;20084;-74
2023/01/08 05:11:47;;;;;;;3.40;1.80;;;9.40;83.00;;;;;;5079624;28;20054;-74
2023/01/08 05:14:14;;;;;;;5.72;1.70;;;9.40;83.00;;;;;;5130464;28;20168;-74
2023/01/08 05:16:39;;;;;;;3.67;1.60;;;9.40;83.00;;;;;;5130402;28;20034;-75
2023/01/08 05:19:05;;;;;;;5.13;1.90;;;9.40;82.90;;;;;;5112670;28;20032;-75
2023/01/08 05:21:31;;;;;;;4.95;1.35;;;9.40;82.90;;;;;;5130822;28;20397;-75
2023/01/08 05:23:57;;;;;;;4.32;1.90;;;9.40;82.80;;;;;;5130087;27;20194;-75
2023/01/08 05:26:22;;;;;;;4.07;1.88;;;9.40;82.80;;;;;;5096958;28;20102;-75
2023/01/08 05:28:48;;;;;;;3.28;1.75;;;9.30;82.80;;;;;;5130304;28;20027;-73
2023/01/08 05:31:15;;;;;;;5.00;1.88;;;9.40;82.80;;;;;;5113237;28;20148;-73
2023/01/08 05:33:40;;;;;;;3.45;1.63;;;9.40;82.90;;;;;;5130037;27;20084;-73
2023/01/08 05:36:08;;;;;;;3.10;1.70;;;9.40;83.00;;;;;;5113594;28;20093;-73
2023/01/08 05:38:34;;;;;;;3.65;1.67;;;9.40;83.20;;;;;;5130247;27;20122;-73
2023/01/08 05:40:59;;;;;;;3.65;2.08;;;9.40;83.10;;;;;;5130665;27;20166;-73
2023/01/08 05:43:25;;;;;;;5.75;2.08;;;9.40;83.10;;;;;;5130030;27;20050;-73
2023/01/08 05:45:51;;;;;;;4.00;1.90;;;9.40;83.10;;;;;;5113181;28;20035;-73
2023/01/08 05:48:17;;;;;;;4.85;1.90;;;9.40;83.10;;;;;;5113053;28;20781;-73
2023/01/08 05:50:43;;;;;;;5.88;2.40;;;9.40;83.10;;;;;;5113283;28;20027;-73
2023/01/08 05:53:09;;;;;;;4.07;1.63;;;9.40;83.20;;;;;;5112630;28;20055;-73
2023/01/08 05:55:35;;;;;;;4.28;2.10;;;9.40;83.20;;;;;;5133182;27;20038;-73
2023/01/08 05:58:02;;;;;;;4.68;1.77;;;9.40;83.20;;;;;;5134344;27;20045;-73
2023/01/08 06:00:29;;;;;;;3.50;2.00;;;9.40;83.20;;;;;;5116013;27;20031;-73
2023/01/08 06:02:55;;;;;;;7.07;1.92;;;9.40;83.20;;;;;;5116803;27;20043;-73
2023/01/08 06:05:20;;;;;;;4.70;2.30;;;9.30;83.10;;;;;;5099259;27;20031;-73
2023/01/08 06:07:46;;;;;;;3.38;1.80;;;9.30;83.00;;;;;;5133580;27;20035;-73
2023/01/08 06:10:12;;;;;;;4.95;1.88;;;9.30;83.00;;;;;;5133639;27;20112;-73
2023/01/08 06:12:37;;;;;;;5.20;1.80;;;9.30;83.10;;;;;;5133770;27;20038;-73
2023/01/08 06:15:04;;;;;;;4.47;1.95;;;9.30;83.10;;;;;;5116639;27;20039;-73
2023/01/08 06:17:30;;;;;;;6.30;1.88;;;9.30;83.10;;;;;;5133455;27;20039;-73
2023/01/08 06:19:56;;;;;;;5.55;2.50;;;9.30;83.10;;;;;;5133966;27;20043;-73
2023/01/08 06:22:22;;;;;;;4.43;2.05;;;9.30;83.10;;;;;;5116447;27;20064;-73
2023/01/08 06:24:48;;;;;;;4.75;1.77;;;9.30;83.10;;;;;;5133390;27;20055;-73
2023/01/08 06:27:13;;;;;;;4.03;1.80;;;9.30;83.00;;;;;;5116461;27;20046;-73
2023/01/08 06:29:39;;;;;;;3.17;1.60;;;9.20;83.00;;;;;;5136798;27;20041;-73
2023/01/08 06:32:05;;;;;;;4.05;1.88;;;9.20;83.10;;;;;;5116073;27;20478;-74
2023/01/08 06:34:30;;;;;;;4.75;1.80;;;9.20;83.10;;;;;;5133139;27;20130;-74
2023/01/08 06:36:56;;;;;;;5.22;1.55;;;9.20;83.10;;;;;;5116099;27;20051;-74
2023/01/08 06:39:22;;;;;;;3.97;1.88;;;9.20;83.10;;;;;;5133059;27;20042;-74
2023/01/08 06:41:47;;;;;;;4.22;2.00;;;9.20;83.10;;;;;;5115851;27;20035;-74
2023/01/08 06:44:13;;;;;;;4.30;1.52;;;9.20;83.20;;;;;;5133049;27;20129;-74
2023/01/08 06:46:39;;;;;;;4.07;1.50;;;9.20;83.20;;;;;;5116133;27;20046;-74
2023/01/08 06:49:08;;;;;;;3.28;1.17;;;9.20;83.10;;;;;;5132751;27;20035;-74
2023/01/08 06:51:34;;;;;;;3.85;1.45;;;9.20;83.10;;;;;;5115818;27;20062;-74
2023/01/08 06:54:00;;;;;;;4.53;1.70;;;9.20;83.30;;;;;;5132522;27;20026;-74
2023/01/08 06:56:26;;;;;;;2.78;1.48;;;9.20;82.90;;;;;;5133196;27;20038;-74
2023/01/08 06:58:52;;;;;;;7.15;2.35;;;9.20;82.90;;;;;;5133135;27;20049;-74
2023/01/08 07:01:18;;;;;;;5.30;1.48;;;9.10;82.70;;;;;;5121763;27;20043;-74
2023/01/08 07:03:44;;;;;;;3.88;1.20;;;9.10;82.60;;;;;;5132295;27;20083;-74
2023/01/08 07:06:18;;;;;;;3.83;1.67;;;9.10;82.60;;;;;;5128865;27;20063;-74
2023/01/08 07:08:44;;;;;;;4.50;1.48;;;9.10;82.60;;;;;;5132885;27;20132;-74
2023/01/08 07:11:11;;;;;;;3.75;1.67;;;9.10;82.50;;;;;;5115263;27;20039;-74
2023/01/08 07:13:36;;;;;;;4.90;1.70;;;9.10;82.50;;;;;;5132371;27;20035;-74
2023/01/08 07:16:07;;;;;;;5.78;2.10;;;9.00;82.40;;;;;;5132031;27;20099;-74
2023/01/08 07:18:33;;;;;;;6.68;2.20;;;9.00;82.30;;;;;;5132300;27;20039;-74
2023/01/08 07:20:58;;;;;;;3.85;2.10;;;9.00;82.30;;;;;;5132037;27;20450;-73
2023/01/08 07:23:24;;;;;;;4.72;1.92;;;9.00;82.20;;;;;;5132001;27;20067;-74
2023/01/08 07:25:50;;;;;;;5.07;2.10;;;9.00;82.10;;;;;;5115087;27;20054;-73
2023/01/08 07:28:15;;;;;;;8.70;2.47;;;9.00;82.10;;;;;;5115135;27;20451;-74
2023/01/08 07:30:42;;;;;;;6.13;2.28;;;8.90;82.00;;;;;;5131716;27;20035;-74
2023/01/08 07:33:07;;;;;;;5.85;1.60;;;8.90;82.10;;;;;;5131771;27;20114;-74
2023/01/08 07:35:34;;;;;;;4.88;1.80;;;8.90;82.00;;;;;;5114838;27;20122;-74
2023/01/08 07:38:00;;;;;;;8.13;1.90;;;8.90;82.00;;;;;;5132681;27;20375;-74
2023/01/08 07:40:25;;;;;;;5.90;1.52;;;8.80;81.90;;;;;;5132028;27;20046;-74
2023/01/08 07:43:02;;;;;;;8.68;1.80;;;8.80;81.90;;;;;;5114756;27;20075;-73
2023/01/08 07:45:29;;;;;;;2.72;1.15;;;8.80;81.90;;;;;;5129659;27;20490;-74
2023/01/08 07:47:58;;;;;;;6.15;1.48;;;8.80;81.90;;;;;;5114786;27;20035;-74
2023/01/08 07:50:24;;;;;;;6.40;1.67;;;8.70;81.90;;;;;;5119286;27;20608;-73
2023/01/08 07:52:50;;;;;;;6.28;1.58;;;8.70;82.00;;;;;;5131723;27;20046;-74
2023/01/08 07:55:16;;;;;;;5.72;1.60;;;8.70;82.00;;;;;;5131083;27;20034;-74
2023/01/08 07:57:41;;;;;;;3.90;1.50;;;8.70;82.00;;;;;;5097273;27;20031;-75
2023/01/08 08:00:08;;;;;;;7.25;1.65;;;8.60;82.00;;;;;;5131077;27;20051;-74
2023/01/08 08:02:33;;;;;;;4.90;1.55;;;8.70;82.20;;;;;;5131529;27;20031;-74
2023/01/08 08:04:59;;;;;;;6.25;1.63;;;8.60;82.10;;;;;;5113924;27;20110;-74
2023/01/08 08:07:25;;;;;;;5.55;1.85;;;8.60;82.10;;;;;;5130814;27;20046;-73
2023/01/08 08:09:50;;;;;;;6.65;1.88;;;8.60;82.20;;;;;;5131040;27;20027;-74
2023/01/08 08:12:16;;;;;;;6.28;1.80;;;8.60;82.20;;;;;;5114086;27;20047;-73
2023/01/08 08:14:42;;;;;;;9.07;1.70;;;8.50;82.20;;;;;;5130943;27;20050;-74
2023/01/08 08:17:07;;;;;;;6.78;1.75;;;8.50;82.30;;;;;;5131123;27;20118;-77
2023/01/08 08:19:33;;;;;;;6.70;1.80;;;8.50;82.40;;;;;;5131610;27;20046;-78
2023/01/08 08:21:58;;;;;;;5.05;1.60;;;8.50;82.50;;;;;;5114406;27;20458;-78
2023/01/08 08:24:24;;;;;;;9.90;2.05;;;8.40;82.50;;;;;;5131415;27;20043;-78
2023/01/08 08:26:53;;;;;;;3.47;1.55;;;8.40;82.50;;;;;;5130917;27;20043;-78
2023/01/08 08:29:19;;;;;;;3.85;1.63;;;8.40;82.60;;;;;;5131138;27;20043;-78
2023/01/08 08:31:45;;;;;;;7.10;1.50;;;8.40;82.70;;;;;;5131217;27;20027;-78
2023/01/08 08:34:10;;;;;;;6.38;2.13;;;8.40;82.80;;;;;;5097243;27;20492;-78
2023/01/08 08:36:36;;;;;;;6.07;1.33;;;8.40;82.80;;;;;;5130715;27;20035;-78
2023/01/08 08:39:02;;;;;;;6.65;1.42;;;8.40;82.90;;;;;;5113951;27;20031;-78
2023/01/08 08:41:28;;;;;;;6.72;1.48;;;8.40;83.00;;;;;;5130917;27;20063;-78
2023/01/08 08:43:54;;;;;;;9.13;1.90;;;8.30;82.90;;;;;;5131019;27;20074;-78
2023/01/08 08:46:19;;;;;;;9.02;2.03;;;8.30;82.90;;;;;;5130451;27;20031;-78
2023/01/08 08:48:46;;;;;;;12.25;2.78;;;8.30;82.90;;;;;;5113653;28;20039;-78
2023/01/08 08:51:12;;;;;;;4.97;1.33;;;8.30;82.90;;;;;;5111635;27;20039;-78
2023/01/08 08:53:38;;;;;;;4.10;1.52;;;8.30;83.00;;;;;;5131238;27;20053;-78
2023/01/08 08:56:04;;;;;;;6.25;1.42;;;8.30;83.00;;;;;;5131172;27;20481;-78
2023/01/08 08:58:30;;;;;;;6.82;1.77;;;8.30;83.10;;;;;;5113896;27;20390;-78
2023/01/08 09:01:03;;;;;;;6.35;1.48;;;8.30;83.20;;;;;;5130803;28;20043;-78
2023/01/08 09:03:30;;;;;;;5.35;1.40;;;8.40;83.30;;;;;;5129395;27;20060;-78
2023/01/08 09:05:55;;;;;;;4.90;1.60;;;8.40;83.20;;;;;;5131095;27;20062;-78
2023/01/08 09:08:21;;;;;;;8.50;2.30;;;8.40;83.30;;;;;;5130717;28;20509;-78
2023/01/08 09:10:47;;;;;;;5.28;1.80;;;8.50;83.30;;;;;;5128118;28;20062;-78
2023/01/08 09:13:12;;;;;;;5.50;1.70;;;8.50;83.20;;;;;;5130192;27;20066;-78
2023/01/08 09:15:38;;;;;;;5.25;1.75;;;8.50;83.20;;;;;;5086899;28;20046;-78
2023/01/08 09:18:04;;;;;;;8.13;2.22;;;8.50;83.10;;;;;;5130763;28;20071;-78
2023/01/08 09:20:30;;;;;;;5.38;1.73;;;8.50;82.90;;;;;;5130965;28;20043;-78
2023/01/08 09:23:00;;;;;;;4.57;1.35;;;8.60;82.90;;;;;;5130661;28;20080;-74
2023/01/08 09:25:26;;;;;;;5.10;1.23;;;8.60;82.80;;;;;;5131246;28;20111;-75
2023/01/08 09:28:03;;;;;;;6.93;1.33;;;8.60;82.60;;;;;;5130154;27;20074;-74
2023/01/08 09:30:30;;;;;;;4.55;1.17;;;8.70;82.70;;;;;;5132697;27;20386;-73
2023/01/08 09:33:00;;;;;;;4.63;1.30;;;8.70;82.50;;;;;;5117537;27;20043;-74
2023/01/08 09:35:26;;;;;;;8.98;2.22;;;8.70;82.40;;;;;;5134988;27;20401;-74
2023/01/08 09:37:53;;;;;;;4.78;1.45;;;8.80;82.40;;;;;;5118251;27;20046;-73
2023/01/08 09:40:21;;;;;;;5.60;1.73;;;8.80;82.30;;;;;;5135188;27;20527;-73
2023/01/08 09:43:05;;;;;;;7.88;1.67;;;8.90;82.10;;;;;;5135208;27;20050;-73
2023/01/08 09:45:37;;;;;;;4.43;1.38;;;8.90;81.90;;;;;;5134344;27;20092;-73
2023/01/08 09:48:10;;;;;;;6.38;1.70;;;9.00;81.90;;;;;;5134816;27;20031;-74
2023/01/08 09:50:36;;;;;;;5.53;1.35;;;9.10;81.80;;;;;;5134694;27;20106;-74
2023/01/08 09:53:02;;;;;;;6.95;1.95;;;9.10;81.50;;;;;;5101272;27;20485;-73
2023/01/08 09:55:32;;;;;;;8.30;1.77;;;9.10;81.30;;;;;;5135381;27;20079;-73
2023/01/08 09:57:59;;;;;;;7.38;2.28;;;9.20;81.10;;;;;;5117860;27;20042;-69
2023/01/08 10:00:32;;;;;;;8.63;2.88;;;9.30;80.90;;;;;;5151606;27;20035;-70
2023/01/08 10:02:58;;;;;;;9.85;2.42;;;9.30;80.60;;;;;;5133526;27;20035;-69
2023/01/08 10:05:28;;;;;;;6.10;1.67;;;9.40;80.40;;;;;;5134439;27;20393;-69
2023/01/08 10:07:54;;;;;;;8.32;2.05;;;9.40;80.00;;;;;;5132185;27;20039;-69
2023/01/08 10:10:27;;;;;;;10.15;1.85;;;9.50;79.80;;;;;;5134458;27;20079;-69
2023/01/08 10:12:53;;;;;;;9.07;1.48;;;9.50;79.60;;;;;;5134031;27;20054;-69
2023/01/08 10:15:21;;;;;;;7.75;1.88;;;9.50;79.30;;;;;;5134456;27;20474;-69
2023/01/08 10:18:05;;;;;;;5.60;1.45;;;9.60;79.30;;;;;;5133722;27;20107;-69
2023/01/08 10:20:34;;;;;;;4.72;1.98;;;9.70;78.80;;;;;;5132995;27;20087;-69
2023/01/08 10:23:15;;;;;;;6.65;2.03;;;9.70;78.90;;;;;;5132330;27;20129;-69
2023/01/08 10:25:48;;;;;;;7.10;1.60;;;9.70;78.40;;;;;;5132623;27;20043;-68
2023/01/08 10:28:22;;;;;;;6.28;2.65;;;9.80;78.20;;;;;;5132828;27;20088;-68
2023/01/08 10:30:50;;;;;;;12.63;1.92;;;9.80;78.10;;;;;;5141061;27;20390;-69
2023/01/08 10:33:24;;;;;;;8.95;1.75;;;9.80;77.70;;;;;;5131958;27;20558;-68
2023/01/08 10:36:05;;;;;;;11.55;2.53;;;9.80;77.50;;;;;;5132341;27;20035;-69
2023/01/08 10:38:38;;;;;;;9.65;1.92;;;9.90;77.50;;;;;;5137280;27;20667;-69
2023/01/08 10:41:10;;;;;;;7.00;2.10;;;9.90;77.30;;;;;;5131422;27;20031;-69
2023/01/08 10:43:55;;;;;;;6.25;1.58;;;9.90;77.30;;;;;;5137640;27;20122;-68
2023/01/08 10:46:29;;;;;;;7.05;1.85;;;9.90;76.70;;;;;;5134162;27;20532;-68
2023/01/08 10:48:58;;;;;;;11.73;2.10;;;9.90;76.70;;;;;;5132959;27;20042;-68
2023/01/08 10:51:27;;;;;;;9.15;2.17;;;9.90;76.70;;;;;;5133094;27;20472;-69
2023/01/08 10:53:55;;;;;;;7.00;1.98;;;10.00;76.60;;;;;;5132447;27;20043;-69
2023/01/08 10:56:23;;;;;;;7.97;2.00;;;9.90;76.50;;;;;;5132497;27;20043;-68
2023/01/08 10:58:50;;;;;;;8.82;1.52;;;10.00;76.50;;;;;;5131941;27;20038;-68
2023/01/08 11:01:27;;;;;;;8.65;2.00;;;10.00;76.00;;;;;;5130377;27;20453;-69
2023/01/08 11:03:57;;;;;;;8.52;1.67;;;10.00;75.70;;;;;;5130840;27;20371;-68
2023/01/08 11:06:26;;;;;;;9.02;1.90;;;10.00;75.90;;;;;;5115898;27;20667;-69
2023/01/08 11:09:12;;;;;;;7.32;1.85;;;10.00;75.90;;;;;;5133049;27;20051;-71
2023/01/08 11:11:38;;;;;;;9.05;1.90;;;10.00;75.80;;;;;;5147985;27;20031;-71
2023/01/08 11:14:14;;;;;;;9.70;2.55;;;10.00;75.80;;;;;;5132092;27;20039;-72
2023/01/08 11:16:41;;;;;;;7.15;2.03;;;10.00;75.70;;;;;;5131020;27;20043;-71
2023/01/08 11:19:22;;;;;;;8.77;1.95;;;10.00;75.90;;;;;;5138615;27;20040;-77
2023/01/08 11:22:00;;;;;;;9.48;1.85;;;10.00;75.90;;;;;;5113866;27;20038;-78
2023/01/08 11:24:31;;;;;;;12.38;3.30;;;10.00;75.80;;;;;;5140490;27;20103;-78
2023/01/08 11:27:28;;;;;;;9.02;1.67;;;10.00;75.80;;;;;;5143292;27;20473;-72
2023/01/08 11:30:23;;;;;;;9.15;2.08;;;10.00;75.70;;;;;;5124751;27;20125;-79
2023/01/08 11:32:56;;;;;;;9.60;2.17;;;10.00;75.60;;;;;;5111403;27;20573;-72
2023/01/08 11:35:28;;;;;;;7.72;1.98;;;10.00;75.80;;;;;;5143816;27;20123;-79
2023/01/08 11:37:58;;;;;;;10.65;2.10;;;10.00;75.80;;;;;;5139795;27;20054;-79
2023/01/08 11:40:30;;;;;;;8.30;2.45;;;10.00;76.00;;;;;;5131785;27;20558;-83
2023/01/08 11:43:23;;;;;;;9.95;2.25;;;10.00;76.10;;;;;;5118317;27;20517;-84
2023/01/08 11:45:52;;;;;;;7.30;1.70;;;10.00;76.00;;;;;;5109266;27;20039;-83
2023/01/08 11:48:45;;;;;;;9.82;2.63;;;10.00;76.20;;;;;;5116736;27;20024;-83
2023/01/08 11:51:29;;;;;;;8.77;1.95;;;10.00;76.20;;;;;;5133207;27;20042;-75
2023/01/08 11:54:16;;;;;;;10.90;2.58;;;10.00;76.30;;;;;;5113533;27;20390;-75
2023/01/08 11:56:51;;;;;;;10.95;2.63;;;10.00;76.40;;;;;;5115131;27;20485;-74
2023/01/08 11:59:44;;;;;;;8.52;2.40;;;10.00;76.40;;;;;;5115332;27;20437;-75
2023/01/08 12:02:34;;;;;;;9.88;2.65;;;10.00;76.20;;;;;;5116130;27;20046;-74
2023/01/08 12:05:30;;;;;;;11.02;1.80;;;10.00;76.10;;;;;;5116146;27;20371;-74
2023/01/08 12:08:21;;;;;;;12.05;2.10;;;10.00;76.10;;;;;;5133063;27;20085;-74
2023/01/08 12:10:54;;;;;;;9.82;2.20;;;10.00;76.20;;;;;;5132692;27;20072;-73
2023/01/08 12:14:05;;;;;;;12.70;2.45;;;10.00;76.40;;;;;;5115165;27;20042;-73
2023/01/08 12:16:52;;;;;;;11.65;2.50;;;10.00;76.10;;;;;;5114343;27;20032;-73
2023/01/08 12:19:55;;;;;;;8.80;2.35;;;10.00;76.40;;;;;;5122701;27;20036;-73
2023/01/08 12:22:36;;;;;;;6.68;2.25;;;10.00;76.20;;;;;;5113359;27;20070;-73
2023/01/08 12:25:33;;;;;;;8.63;2.10;;;10.00;76.30;;;;;;5130655;27;20084;-73
2023/01/08 12:28:36;;;;;;;10.00;2.03;;;10.00;75.90;;;;;;5121069;27;20039;-74
2023/01/08 12:31:20;;;;;;;11.30;2.67;;;10.00;75.70;;;;;;5113080;27;20046;-73
2023/01/08 12:33:55;;;;;;;8.93;2.10;;;10.00;75.90;;;;;;5122409;27;20046;-73
2023/01/08 12:36:29;;;;;;;10.20;1.98;;;10.00;75.80;;;;;;5114003;27;20035;-74
2023/01/08 12:39:05;;;;;;;9.55;2.42;;;10.00;75.80;;;;;;5130357;27;20443;-74
2023/01/08 12:41:33;;;;;;;9.52;2.13;;;10.00;75.70;;;;;;5124072;27;20039;-72
2023/01/08 12:44:03;;;;;;;13.70;2.55;;;10.00;75.60;;;;;;5130935;27;20046;-72
2023/01/08 12:46:36;;;;;;;7.07;2.28;;;10.00;75.50;;;;;;5130560;27;20031;-73
2023/01/08 12:49:05;;;;;;;9.65;2.28;;;10.00;75.40;;;;;;5136167;27;20031;-73
2023/01/08 12:51:34;;;;;;;7.07;1.73;;;10.00;75.30;;;;;;5131062;27;20064;-74
2023/01/08 12:54:32;;;;;;;5.80;1.42;;;10.00;75.30;;;;;;5113178;27;20079;-73
2023/01/08 12:57:02;;;;;;;10.68;2.58;;;10.00;75.30;;;;;;5131193;27;20046;-73
2023/01/08 12:59:36;;;;;;;10.55;2.60;;;9.90;75.40;;;;;;5114205;28;20435;-73
2023/01/08 13:02:17;;;;;;;9.45;2.03;;;9.90;75.60;;;;;;5131125;27;20084;-74
2023/01/08 13:04:46;;;;;;;9.27;2.03;;;9.90;75.70;;;;;;5133266;27;20070;-74
2023/01/08 13:07:20;;;;;;;6.85;1.67;;;9.90;75.80;;;;;;5135322;27;20035;-74